sensor_id;sensor_type;location;lat;lon;timestamp;P1;durP1;ratioP1;P2;durP2;ratioP2
40731;SDS011;26420;52.256;9.096;2024-01-25T00:01:13;19.20;;;3.33;;
40731;SDS011;26420;52.256;9.096;2024-01-25T00:06:15;17.23;;;3.93;;
40731;SDS011;26420;52.256;9.096;2024-01-25T00:11:18;15.35;;;3.65;;
40731;SDS011;26420;52.256;9.096;2024-01-25T00:16:20;13.35;;;3.22;;
40731;SDS011;26420;52.256;9.096;2024-01-25T00:21:22;15.57;;;3.42;;
40731;SDS011;26420;52.256;9.096;2024-01-25T00:26:25;16.30;;;3.67;;
40731;SDS011;26420;52.256;9.096;2024-01-25T00:31:27;24.58;;;4.43;;
40731;SDS011;26420;52.256;9.096;2024-01-25T00:36:29;13.95;;;3.42;;
40731;SDS011;26420;52.256;9.096;2024-01-25T00:41:32;13.30;;;3.67;;
40731;SDS011;26420;52.256;9.096;2024-01-25T00:46:35;14.13;;;3.45;;
40731;SDS011;26420;52.256;9.096;2024-01-25T00:51:37;19.27;;;4.45;;
40731;SDS011;26420;52.256;9.096;2024-01-25T00:56:40;20.40;;;3.80;;
40731;SDS011;26420;52.256;9.096;2024-01-25T01:01:42;14.70;;;3.53;;
40731;SDS011;26420;52.256;9.096;2024-01-25T01:06:47;9.40;;;2.80;;
40731;SDS011;26420;52.256;9.096;2024-01-25T01:11:49;19.88;;;3.35;;
40731;SDS011;26420;52.256;9.096;2024-01-25T01:16:53;12.40;;;3.58;;
40731;SDS011;26420;52.256;9.096;2024-01-25T01:21:56;16.85;;;2.95;;
40731;SDS011;26420;52.256;9.096;2024-01-25T01:26:59;17.75;;;3.42;;
40731;SDS011;26420;52.256;9.096;2024-01-25T01:32:01;16.52;;;3.88;;
40731;SDS011;26420;52.256;9.096;2024-01-25T01:37:03;10.77;;;3.45;;
40731;SDS011;26420;52.256;9.096;2024-01-25T01:42:06;16.55;;;3.70;;
40731;SDS011;26420;52.256;9.096;2024-01-25T01:47:08;14.73;;;3.45;;
40731;SDS011;26420;52.256;9.096;2024-01-25T01:52:10;15.73;;;3.28;;
40731;SDS011;26420;52.256;9.096;2024-01-25T01:57:14;12.40;;;3.42;;
40731;SDS011;26420;52.256;9.096;2024-01-25T02:02:16;14.32;;;3.50;;
40731;SDS011;26420;52.256;9.096;2024-01-25T02:07:19;18.27;;;3.70;;
40731;SDS011;26420;52.256;9.096;2024-01-25T02:12:21;14.40;;;3.10;;
40731;SDS011;26420;52.256;9.096;2024-01-25T02:17:23;15.90;;;3.50;;
40731;SDS011;26420;52.256;9.096;2024-01-25T02:22:25;11.83;;;3.50;;
40731;SDS011;26420;52.256;9.096;2024-01-25T02:27:28;14.10;;;3.27;;
40731;SDS011;26420;52.256;9.096;2024-01-25T02:32:31;14.40;;;3.17;;
40731;SDS011;26420;52.256;9.096;2024-01-25T02:37:33;11.83;;;3.10;;
40731;SDS011;26420;52.256;9.096;2024-01-25T02:42:35;17.55;;;3.72;;
40731;SDS011;26420;52.256;9.096;2024-01-25T02:47:37;13.35;;;3.30;;
40731;SDS011;26420;52.256;9.096;2024-01-25T02:52:40;11.47;;;3.23;;
40731;SDS011;26420;52.256;9.096;2024-01-25T02:57:42;15.02;;;3.35;;
40731;SDS011;26420;52.256;9.096;2024-01-25T03:02:45;17.42;;;3.22;;
40731;SDS011;26420;52.256;9.096;2024-01-25T03:07:47;12.40;;;3.22;;
40731;SDS011;26420;52.256;9.096;2024-01-25T03:12:49;16.25;;;3.60;;
40731;SDS011;26420;52.256;9.096;2024-01-25T03:17:52;16.27;;;3.10;;
40731;SDS011;26420;52.256;9.096;2024-01-25T03:22:54;14.03;;;3.13;;
40731;SDS011;26420;52.256;9.096;2024-01-25T03:27:56;16.70;;;3.75;;
40731;SDS011;26420;52.256;9.096;2024-01-25T03:32:59;14.32;;;2.95;;
40731;SDS011;26420;52.256;9.096;2024-01-25T03:38:01;10.95;;;2.65;;
40731;SDS011;26420;52.256;9.096;2024-01-25T03:43:04;16.30;;;3.28;;
40731;SDS011;26420;52.256;9.096;2024-01-25T03:48:20;13.20;;;2.90;;
40731;SDS011;26420;52.256;9.096;2024-01-25T03:53:23;18.98;;;3.58;;
40731;SDS011;26420;52.256;9.096;2024-01-25T03:58:25;11.80;;;3.38;;
40731;SDS011;26420;52.256;9.096;2024-01-25T04:03:28;15.75;;;3.40;;
40731;SDS011;26420;52.256;9.096;2024-01-25T04:08:31;17.42;;;3.17;;
40731;SDS011;26420;52.256;9.096;2024-01-25T04:13:33;14.23;;;3.10;;
40731;SDS011;26420;52.256;9.096;2024-01-25T04:18:36;12.52;;;3.13;;
40731;SDS011;26420;52.256;9.096;2024-01-25T04:23:39;12.43;;;3.63;;
40731;SDS011;26420;52.256;9.096;2024-01-25T04:28:42;10.30;;;3.47;;
40731;SDS011;26420;52.256;9.096;2024-01-25T04:33:44;12.07;;;3.17;;
40731;SDS011;26420;52.256;9.096;2024-01-25T04:38:49;15.20;;;3.33;;
40731;SDS011;26420;52.256;9.096;2024-01-25T04:43:51;15.70;;;3.53;;
40731;SDS011;26420;52.256;9.096;2024-01-25T04:48:53;14.73;;;3.05;;
40731;SDS011;26420;52.256;9.096;2024-01-25T04:53:56;12.63;;;3.20;;
40731;SDS011;26420;52.256;9.096;2024-01-25T04:58:58;17.08;;;3.22;;
40731;SDS011;26420;52.256;9.096;2024-01-25T05:04:00;22.13;;;3.60;;
40731;SDS011;26420;52.256;9.096;2024-01-25T05:09:04;14.30;;;2.67;;
40731;SDS011;26420;52.256;9.096;2024-01-25T05:14:09;14.43;;;3.47;;
40731;SDS011;26420;52.256;9.096;2024-01-25T05:19:12;14.93;;;3.97;;
40731;SDS011;26420;52.256;9.096;2024-01-25T05:24:14;17.88;;;3.78;;
40731;SDS011;26420;52.256;9.096;2024-01-25T05:29:16;17.20;;;4.13;;
40731;SDS011;26420;52.256;9.096;2024-01-25T05:34:18;15.82;;;3.63;;
40731;SDS011;26420;52.256;9.096;2024-01-25T05:39:21;17.27;;;3.40;;
40731;SDS011;26420;52.256;9.096;2024-01-25T05:44:23;13.80;;;3.13;;
40731;SDS011;26420;52.256;9.096;2024-01-25T05:49:26;20.83;;;4.00;;
40731;SDS011;26420;52.256;9.096;2024-01-25T05:54:28;12.48;;;3.20;;
40731;SDS011;26420;52.256;9.096;2024-01-25T05:59:34;17.70;;;3.80;;
40731;SDS011;26420;52.256;9.096;2024-01-25T06:04:36;15.87;;;4.07;;
40731;SDS011;26420;52.256;9.096;2024-01-25T06:09:38;14.67;;;3.33;;
40731;SDS011;26420;52.256;9.096;2024-01-25T06:14:41;16.57;;;3.83;;
40731;SDS011;26420;52.256;9.096;2024-01-25T06:19:43;18.42;;;3.72;;
40731;SDS011;26420;52.256;9.096;2024-01-25T06:24:45;18.38;;;4.25;;
40731;SDS011;26420;52.256;9.096;2024-01-25T06:29:48;13.07;;;3.20;;
40731;SDS011;26420;52.256;9.096;2024-01-25T06:34:50;12.43;;;3.05;;
40731;SDS011;26420;52.256;9.096;2024-01-25T06:39:54;13.55;;;3.30;;
40731;SDS011;26420;52.256;9.096;2024-01-25T06:44:56;12.50;;;2.97;;
40731;SDS011;26420;52.256;9.096;2024-01-25T06:49:59;16.20;;;3.95;;
40731;SDS011;26420;52.256;9.096;2024-01-25T06:55:01;20.33;;;3.67;;
40731;SDS011;26420;52.256;9.096;2024-01-25T07:00:04;14.80;;;3.95;;
40731;SDS011;26420;52.256;9.096;2024-01-25T07:05:08;16.48;;;4.10;;
40731;SDS011;26420;52.256;9.096;2024-01-25T07:10:11;17.13;;;4.03;;
40731;SDS011;26420;52.256;9.096;2024-01-25T07:15:14;11.82;;;3.38;;
40731;SDS011;26420;52.256;9.096;2024-01-25T07:20:16;17.27;;;3.93;;
40731;SDS011;26420;52.256;9.096;2024-01-25T07:25:21;17.13;;;4.03;;
40731;SDS011;26420;52.256;9.096;2024-01-25T07:30:24;15.43;;;4.20;;
40731;SDS011;26420;52.256;9.096;2024-01-25T07:35:26;16.77;;;3.60;;
40731;SDS011;26420;52.256;9.096;2024-01-25T07:40:28;18.52;;;4.72;;
40731;SDS011;26420;52.256;9.096;2024-01-25T07:45:31;14.02;;;3.63;;
40731;SDS011;26420;52.256;9.096;2024-01-25T07:50:34;19.95;;;4.05;;
40731;SDS011;26420;52.256;9.096;2024-01-25T07:55:36;17.77;;;3.92;;
40731;SDS011;26420;52.256;9.096;2024-01-25T08:00:38;14.73;;;3.75;;
40731;SDS011;26420;52.256;9.096;2024-01-25T08:05:41;23.38;;;4.25;;
40731;SDS011;26420;52.256;9.096;2024-01-25T08:10:51;18.13;;;4.60;;
40731;SDS011;26420;52.256;9.096;2024-01-25T08:15:53;12.75;;;3.78;;
40731;SDS011;26420;52.256;9.096;2024-01-25T08:20:56;16.08;;;3.92;;
40731;SDS011;26420;52.256;9.096;2024-01-25T08:25:59;17.30;;;4.30;;
40731;SDS011;26420;52.256;9.096;2024-01-25T08:31:01;18.10;;;3.60;;
40731;SDS011;26420;52.256;9.096;2024-01-25T08:36:04;13.25;;;3.55;;
40731;SDS011;26420;52.256;9.096;2024-01-25T08:41:06;15.85;;;4.15;;
40731;SDS011;26420;52.256;9.096;2024-01-25T08:46:08;12.40;;;4.00;;
40731;SDS011;26420;52.256;9.096;2024-01-25T08:51:13;25.05;;;4.45;;
40731;SDS011;26420;52.256;9.096;2024-01-25T08:56:16;16.42;;;4.55;;
40731;SDS011;26420;52.256;9.096;2024-01-25T09:01:18;21.65;;;4.03;;
40731;SDS011;26420;52.256;9.096;2024-01-25T09:06:21;16.88;;;4.38;;
40731;SDS011;26420;52.256;9.096;2024-01-25T09:11:23;18.58;;;4.20;;
40731;SDS011;26420;52.256;9.096;2024-01-25T09:16:26;14.90;;;3.80;;
40731;SDS011;26420;52.256;9.096;2024-01-25T09:21:28;17.77;;;4.40;;
40731;SDS011;26420;52.256;9.096;2024-01-25T09:26:30;14.80;;;4.10;;
40731;SDS011;26420;52.256;9.096;2024-01-25T09:31:33;17.53;;;4.00;;
40731;SDS011;26420;52.256;9.096;2024-01-25T09:36:36;17.60;;;4.10;;
40731;SDS011;26420;52.256;9.096;2024-01-25T09:41:38;17.47;;;4.23;;
40731;SDS011;26420;52.256;9.096;2024-01-25T09:46:41;18.92;;;5.18;;
40731;SDS011;26420;52.256;9.096;2024-01-25T09:51:44;18.45;;;4.93;;
40731;SDS011;26420;52.256;9.096;2024-01-25T09:56:47;19.90;;;5.43;;
40731;SDS011;26420;52.256;9.096;2024-01-25T10:01:52;22.30;;;3.87;;
40731;SDS011;26420;52.256;9.096;2024-01-25T10:06:55;19.88;;;4.57;;
40731;SDS011;26420;52.256;9.096;2024-01-25T10:11:58;18.17;;;5.17;;
40731;SDS011;26420;52.256;9.096;2024-01-25T10:17:18;12.13;;;3.97;;
40731;SDS011;26420;52.256;9.096;2024-01-25T10:22:21;20.88;;;4.35;;
40731;SDS011;26420;52.256;9.096;2024-01-25T10:27:24;18.08;;;3.85;;
40731;SDS011;26420;52.256;9.096;2024-01-25T10:32:27;12.57;;;3.37;;
40731;SDS011;26420;52.256;9.096;2024-01-25T10:37:30;20.45;;;4.25;;
40731;SDS011;26420;52.256;9.096;2024-01-25T10:42:33;19.10;;;4.20;;
40731;SDS011;26420;52.256;9.096;2024-01-25T10:47:36;18.25;;;4.70;;
40731;SDS011;26420;52.256;9.096;2024-01-25T10:52:42;17.10;;;3.67;;
40731;SDS011;26420;52.256;9.096;2024-01-25T10:57:45;16.45;;;4.20;;
40731;SDS011;26420;52.256;9.096;2024-01-25T11:02:50;13.50;;;3.75;;
40731;SDS011;26420;52.256;9.096;2024-01-25T11:07:52;12.98;;;4.07;;
40731;SDS011;26420;52.256;9.096;2024-01-25T11:12:57;17.48;;;3.65;;
40731;SDS011;26420;52.256;9.096;2024-01-25T11:18:07;22.60;;;4.23;;
40731;SDS011;26420;52.256;9.096;2024-01-25T11:23:10;15.48;;;3.67;;
40731;SDS011;26420;52.256;9.096;2024-01-25T11:28:13;19.92;;;3.95;;
40731;SDS011;26420;52.256;9.096;2024-01-25T11:33:17;11.60;;;3.63;;
40731;SDS011;26420;52.256;9.096;2024-01-25T11:38:21;12.70;;;3.83;;
40731;SDS011;26420;52.256;9.096;2024-01-25T11:43:24;17.20;;;3.38;;
40731;SDS011;26420;52.256;9.096;2024-01-25T11:48:27;17.10;;;3.47;;
40731;SDS011;26420;52.256;9.096;2024-01-25T11:53:29;16.30;;;3.92;;
40731;SDS011;26420;52.256;9.096;2024-01-25T11:58:32;11.60;;;3.73;;
40731;SDS011;26420;52.256;9.096;2024-01-25T12:03:38;15.15;;;3.88;;
40731;SDS011;26420;52.256;9.096;2024-01-25T12:08:40;10.73;;;3.28;;
40731;SDS011;26420;52.256;9.096;2024-01-25T12:13:43;14.65;;;3.47;;
40731;SDS011;26420;52.256;9.096;2024-01-25T12:18:46;10.07;;;3.17;;
40731;SDS011;26420;52.256;9.096;2024-01-25T12:23:49;13.45;;;3.67;;
40731;SDS011;26420;52.256;9.096;2024-01-25T12:28:52;12.60;;;3.13;;
40731;SDS011;26420;52.256;9.096;2024-01-25T12:33:54;13.17;;;3.53;;
40731;SDS011;26420;52.256;9.096;2024-01-25T12:38:57;12.80;;;3.70;;
40731;SDS011;26420;52.256;9.096;2024-01-25T12:44:02;11.30;;;3.55;;
40731;SDS011;26420;52.256;9.096;2024-01-25T12:49:05;11.98;;;3.70;;
40731;SDS011;26420;52.256;9.096;2024-01-25T12:54:08;9.40;;;2.60;;
40731;SDS011;26420;52.256;9.096;2024-01-25T12:59:12;10.73;;;3.17;;
40731;SDS011;26420;52.256;9.096;2024-01-25T13:04:15;12.23;;;3.63;;
40731;SDS011;26420;52.256;9.096;2024-01-25T13:09:23;14.23;;;3.22;;
40731;SDS011;26420;52.256;9.096;2024-01-25T13:14:26;9.90;;;3.43;;
40731;SDS011;26420;52.256;9.096;2024-01-25T13:19:28;11.73;;;3.45;;
40731;SDS011;26420;52.256;9.096;2024-01-25T13:24:31;13.02;;;3.30;;
40731;SDS011;26420;52.256;9.096;2024-01-25T13:29:33;11.55;;;3.47;;
40731;SDS011;26420;52.256;9.096;2024-01-25T13:34:36;9.25;;;2.92;;
40731;SDS011;26420;52.256;9.096;2024-01-25T13:39:39;11.23;;;2.72;;
40731;SDS011;26420;52.256;9.096;2024-01-25T13:44:41;13.30;;;3.33;;
40731;SDS011;26420;52.256;9.096;2024-01-25T13:49:44;10.70;;;2.50;;
40731;SDS011;26420;52.256;9.096;2024-01-25T13:54:46;9.50;;;3.40;;
40731;SDS011;26420;52.256;9.096;2024-01-25T13:59:52;9.25;;;2.30;;
40731;SDS011;26420;52.256;9.096;2024-01-25T14:04:54;11.73;;;3.10;;
40731;SDS011;26420;52.256;9.096;2024-01-25T14:09:57;10.67;;;3.13;;
40731;SDS011;26420;52.256;9.096;2024-01-25T14:14:59;11.70;;;3.13;;
40731;SDS011;26420;52.256;9.096;2024-01-25T14:20:02;15.80;;;2.78;;
40731;SDS011;26420;52.256;9.096;2024-01-25T14:25:06;12.75;;;3.35;;
40731;SDS011;26420;52.256;9.096;2024-01-25T14:30:09;8.40;;;2.97;;
40731;SDS011;26420;52.256;9.096;2024-01-25T14:35:12;16.02;;;3.00;;
40731;SDS011;26420;52.256;9.096;2024-01-25T14:40:14;11.50;;;2.88;;
40731;SDS011;26420;52.256;9.096;2024-01-25T14:45:37;10.93;;;2.90;;
40731;SDS011;26420;52.256;9.096;2024-01-25T14:50:39;14.63;;;3.22;;
40731;SDS011;26420;52.256;9.096;2024-01-25T14:55:42;9.43;;;3.35;;
40731;SDS011;26420;52.256;9.096;2024-01-25T15:00:44;13.23;;;3.07;;
40731;SDS011;26420;52.256;9.096;2024-01-25T15:05:47;11.55;;;3.00;;
40731;SDS011;26420;52.256;9.096;2024-01-25T15:10:49;14.53;;;3.47;;
40731;SDS011;26420;52.256;9.096;2024-01-25T15:15:52;12.93;;;2.65;;
40731;SDS011;26420;52.256;9.096;2024-01-25T15:20:55;12.48;;;3.50;;
40731;SDS011;26420;52.256;9.096;2024-01-25T15:25:58;14.93;;;3.55;;
40731;SDS011;26420;52.256;9.096;2024-01-25T15:31:01;13.88;;;3.17;;
40731;SDS011;26420;52.256;9.096;2024-01-25T15:36:03;16.50;;;3.80;;
40731;SDS011;26420;52.256;9.096;2024-01-25T15:41:06;16.02;;;3.08;;
40731;SDS011;26420;52.256;9.096;2024-01-25T15:46:08;13.20;;;3.97;;
40731;SDS011;26420;52.256;9.096;2024-01-25T15:51:11;12.33;;;3.67;;
40731;SDS011;26420;52.256;9.096;2024-01-25T15:56:15;18.33;;;3.80;;
40731;SDS011;26420;52.256;9.096;2024-01-25T16:01:18;19.33;;;4.70;;
40731;SDS011;26420;52.256;9.096;2024-01-25T16:06:21;16.37;;;4.40;;
40731;SDS011;26420;52.256;9.096;2024-01-25T16:11:23;15.98;;;5.45;;
40731;SDS011;26420;52.256;9.096;2024-01-25T16:16:25;18.45;;;6.53;;
40731;SDS011;26420;52.256;9.096;2024-01-25T16:21:27;20.97;;;7.83;;
40731;SDS011;26420;52.256;9.096;2024-01-25T16:26:30;16.83;;;7.20;;
40731;SDS011;26420;52.256;9.096;2024-01-25T16:31:33;24.05;;;8.25;;
40731;SDS011;26420;52.256;9.096;2024-01-25T16:36:35;30.98;;;8.10;;
40731;SDS011;26420;52.256;9.096;2024-01-25T16:41:38;27.90;;;7.95;;
40731;SDS011;26420;52.256;9.096;2024-01-25T16:46:40;24.30;;;8.13;;
40731;SDS011;26420;52.256;9.096;2024-01-25T16:51:42;25.42;;;8.02;;
40731;SDS011;26420;52.256;9.096;2024-01-25T16:56:44;19.38;;;8.32;;
40731;SDS011;26420;52.256;9.096;2024-01-25T17:01:49;12.40;;;5.20;;
40731;SDS011;26420;52.256;9.096;2024-01-25T17:06:52;13.40;;;4.80;;
40731;SDS011;26420;52.256;9.096;2024-01-25T17:11:54;11.00;;;5.22;;
40731;SDS011;26420;52.256;9.096;2024-01-25T17:16:56;27.83;;;7.05;;
40731;SDS011;26420;52.256;9.096;2024-01-25T17:21:59;19.48;;;5.25;;
40731;SDS011;26420;52.256;9.096;2024-01-25T17:27:01;11.25;;;4.30;;
40731;SDS011;26420;52.256;9.096;2024-01-25T17:32:04;17.40;;;4.97;;
40731;SDS011;26420;52.256;9.096;2024-01-25T17:37:07;23.00;;;6.25;;
40731;SDS011;26420;52.256;9.096;2024-01-25T17:42:12;19.88;;;5.82;;
40731;SDS011;26420;52.256;9.096;2024-01-25T17:47:15;29.42;;;5.93;;
40731;SDS011;26420;52.256;9.096;2024-01-25T17:52:17;22.80;;;6.17;;
40731;SDS011;26420;52.256;9.096;2024-01-25T17:57:20;20.33;;;5.55;;
40731;SDS011;26420;52.256;9.096;2024-01-25T18:02:22;19.67;;;5.07;;
40731;SDS011;26420;52.256;9.096;2024-01-25T18:07:24;20.77;;;5.32;;
40731;SDS011;26420;52.256;9.096;2024-01-25T18:12:27;13.17;;;4.77;;
40731;SDS011;26420;52.256;9.096;2024-01-25T18:17:31;23.90;;;5.90;;
40731;SDS011;26420;52.256;9.096;2024-01-25T18:22:33;20.00;;;5.38;;
40731;SDS011;26420;52.256;9.096;2024-01-25T18:27:36;18.67;;;5.38;;
40731;SDS011;26420;52.256;9.096;2024-01-25T18:32:38;17.67;;;5.47;;
40731;SDS011;26420;52.256;9.096;2024-01-25T18:37:41;17.75;;;4.18;;
40731;SDS011;26420;52.256;9.096;2024-01-25T18:42:43;19.45;;;5.10;;
40731;SDS011;26420;52.256;9.096;2024-01-25T18:47:48;23.77;;;5.28;;
40731;SDS011;26420;52.256;9.096;2024-01-25T18:52:50;22.70;;;5.03;;
40731;SDS011;26420;52.256;9.096;2024-01-25T18:57:52;16.63;;;4.90;;
40731;SDS011;26420;52.256;9.096;2024-01-25T19:02:55;13.40;;;4.72;;
40731;SDS011;26420;52.256;9.096;2024-01-25T19:07:58;19.35;;;5.20;;
40731;SDS011;26420;52.256;9.096;2024-01-25T19:13:00;17.38;;;5.30;;
40731;SDS011;26420;52.256;9.096;2024-01-25T19:18:03;16.27;;;4.68;;
40731;SDS011;26420;52.256;9.096;2024-01-25T19:23:06;14.20;;;5.10;;
40731;SDS011;26420;52.256;9.096;2024-01-25T19:28:09;19.05;;;5.05;;
40731;SDS011;26420;52.256;9.096;2024-01-25T19:33:11;14.88;;;4.78;;
40731;SDS011;26420;52.256;9.096;2024-01-25T19:38:13;16.00;;;5.13;;
40731;SDS011;26420;52.256;9.096;2024-01-25T19:43:17;18.50;;;5.30;;
40731;SDS011;26420;52.256;9.096;2024-01-25T19:48:20;15.40;;;5.07;;
40731;SDS011;26420;52.256;9.096;2024-01-25T19:53:23;12.93;;;4.47;;
40731;SDS011;26420;52.256;9.096;2024-01-25T19:58:25;19.93;;;5.20;;
40731;SDS011;26420;52.256;9.096;2024-01-25T20:03:29;14.15;;;4.75;;
40731;SDS011;26420;52.256;9.096;2024-01-25T20:08:32;14.85;;;5.30;;
40731;SDS011;26420;52.256;9.096;2024-01-25T20:13:34;16.88;;;4.80;;
40731;SDS011;26420;52.256;9.096;2024-01-25T20:18:37;13.02;;;4.55;;
40731;SDS011;26420;52.256;9.096;2024-01-25T20:23:40;14.45;;;4.10;;
40731;SDS011;26420;52.256;9.096;2024-01-25T20:28:43;16.90;;;4.35;;
40731;SDS011;26420;52.256;9.096;2024-01-25T20:33:45;16.63;;;4.82;;
40731;SDS011;26420;52.256;9.096;2024-01-25T20:38:48;20.98;;;6.53;;
40731;SDS011;26420;52.256;9.096;2024-01-25T20:43:50;15.60;;;4.07;;
40731;SDS011;26420;52.256;9.096;2024-01-25T20:48:53;14.77;;;3.92;;
40731;SDS011;26420;52.256;9.096;2024-01-25T20:53:55;13.73;;;3.88;;
40731;SDS011;26420;52.256;9.096;2024-01-25T20:59:05;14.93;;;4.28;;
40731;SDS011;26420;52.256;9.096;2024-01-25T21:04:07;19.00;;;5.50;;
40731;SDS011;26420;52.256;9.096;2024-01-25T21:09:10;16.83;;;4.60;;
40731;SDS011;26420;52.256;9.096;2024-01-25T21:14:13;16.97;;;4.60;;
40731;SDS011;26420;52.256;9.096;2024-01-25T21:19:15;16.20;;;4.60;;
40731;SDS011;26420;52.256;9.096;2024-01-25T21:24:18;13.03;;;3.60;;
40731;SDS011;26420;52.256;9.096;2024-01-25T21:29:20;11.33;;;3.57;;
40731;SDS011;26420;52.256;9.096;2024-01-25T21:34:23;12.75;;;4.05;;
40731;SDS011;26420;52.256;9.096;2024-01-25T21:39:25;20.88;;;4.28;;
40731;SDS011;26420;52.256;9.096;2024-01-25T21:44:28;13.60;;;3.93;;
40731;SDS011;26420;52.256;9.096;2024-01-25T21:49:30;13.90;;;3.33;;
40731;SDS011;26420;52.256;9.096;2024-01-25T21:54:33;19.23;;;4.60;;
40731;SDS011;26420;52.256;9.096;2024-01-25T21:59:35;16.30;;;4.30;;
40731;SDS011;26420;52.256;9.096;2024-01-25T22:04:37;11.80;;;3.60;;
40731;SDS011;26420;52.256;9.096;2024-01-25T22:09:41;22.43;;;5.07;;
40731;SDS011;26420;52.256;9.096;2024-01-25T22:14:43;15.47;;;5.00;;
40731;SDS011;26420;52.256;9.096;2024-01-25T22:19:46;13.85;;;3.97;;
40731;SDS011;26420;52.256;9.096;2024-01-25T22:24:48;10.48;;;4.03;;
40731;SDS011;26420;52.256;9.096;2024-01-25T22:29:52;14.55;;;4.30;;
40731;SDS011;26420;52.256;9.096;2024-01-25T22:34:54;21.38;;;4.72;;
40731;SDS011;26420;52.256;9.096;2024-01-25T22:39:57;8.85;;;4.18;;
40731;SDS011;26420;52.256;9.096;2024-01-25T22:44:59;14.07;;;3.92;;
40731;SDS011;26420;52.256;9.096;2024-01-25T22:50:02;13.73;;;4.50;;
40731;SDS011;26420;52.256;9.096;2024-01-25T22:55:04;13.52;;;4.10;;
40731;SDS011;26420;52.256;9.096;2024-01-25T23:00:07;13.07;;;3.45;;
40731;SDS011;26420;52.256;9.096;2024-01-25T23:05:16;14.38;;;4.13;;
40731;SDS011;26420;52.256;9.096;2024-01-25T23:10:21;11.47;;;3.00;;
40731;SDS011;26420;52.256;9.096;2024-01-25T23:15:25;12.00;;;3.22;;
40731;SDS011;26420;52.256;9.096;2024-01-25T23:20:28;17.58;;;4.10;;
40731;SDS011;26420;52.256;9.096;2024-01-25T23:25:30;13.77;;;3.80;;
40731;SDS011;26420;52.256;9.096;2024-01-25T23:30:32;19.88;;;4.97;;
40731;SDS011;26420;52.256;9.096;2024-01-25T23:35:35;14.63;;;3.55;;
40731;SDS011;26420;52.256;9.096;2024-01-25T23:40:37;16.27;;;4.20;;
40731;SDS011;26420;52.256;9.096;2024-01-25T23:45:40;13.55;;;3.83;;
40731;SDS011;26420;52.256;9.096;2024-01-25T23:50:42;12.98;;;4.15;;
40731;SDS011;26420;52.256;9.096;2024-01-25T23:55:45;13.73;;;3.58;;
